sensor_id;sensor_type;location;lat;lon;timestamp;P1;durP1;ratioP1;P2;durP2;ratioP2
69594;SDS011;56800;52.142;5.364;2023-07-13T00:00:47;14.97;;;2.50;;
69594;SDS011;56800;52.142;5.364;2023-07-13T00:03:14;13.85;;;3.00;;
69594;SDS011;56800;52.142;5.364;2023-07-13T00:05:41;16.70;;;3.30;;
69594;SDS011;56800;52.142;5.364;2023-07-13T00:08:08;14.05;;;3.22;;
69594;SDS011;56800;52.142;5.364;2023-07-13T00:10:40;17.80;;;2.80;;
69594;SDS011;56800;52.142;5.364;2023-07-13T00:13:08;11.03;;;2.30;;
69594;SDS011;56800;52.142;5.364;2023-07-13T00:15:35;9.65;;;2.30;;
69594;SDS011;56800;52.142;5.364;2023-07-13T00:18:02;16.10;;;2.95;;
69594;SDS011;56800;52.142;5.364;2023-07-13T00:20:29;13.60;;;2.30;;
69594;SDS011;56800;52.142;5.364;2023-07-13T00:22:56;10.02;;;2.70;;
69594;SDS011;56800;52.142;5.364;2023-07-13T00:25:23;11.53;;;2.60;;
69594;SDS011;56800;52.142;5.364;2023-07-13T00:27:52;15.23;;;2.92;;
69594;SDS011;56800;52.142;5.364;2023-07-13T00:30:19;14.55;;;3.20;;
69594;SDS011;56800;52.142;5.364;2023-07-13T00:32:45;10.95;;;2.47;;
69594;SDS011;56800;52.142;5.364;2023-07-13T00:35:13;9.85;;;3.05;;
69594;SDS011;56800;52.142;5.364;2023-07-13T00:37:41;11.87;;;2.87;;
69594;SDS011;56800;52.142;5.364;2023-07-13T00:40:09;14.45;;;3.05;;
69594;SDS011;56800;52.142;5.364;2023-07-13T00:42:40;10.85;;;2.15;;
69594;SDS011;56800;52.142;5.364;2023-07-13T00:46:09;11.90;;;2.67;;
69594;SDS011;56800;52.142;5.364;2023-07-13T00:47:55;6.57;;;2.08;;
69594;SDS011;56800;52.142;5.364;2023-07-13T00:50:25;11.37;;;2.20;;
69594;SDS011;56800;52.142;5.364;2023-07-13T00:52:53;10.65;;;2.20;;
69594;SDS011;56800;52.142;5.364;2023-07-13T00:55:21;10.75;;;2.53;;
69594;SDS011;56800;52.142;5.364;2023-07-13T00:57:48;12.70;;;2.30;;
69594;SDS011;56800;52.142;5.364;2023-07-13T01:00:15;10.48;;;2.45;;
69594;SDS011;56800;52.142;5.364;2023-07-13T01:02:44;10.67;;;2.10;;
69594;SDS011;56800;52.142;5.364;2023-07-13T01:05:13;8.43;;;2.10;;
69594;SDS011;56800;52.142;5.364;2023-07-13T01:07:43;9.68;;;2.33;;
69594;SDS011;56800;52.142;5.364;2023-07-13T01:10:12;14.20;;;3.25;;
69594;SDS011;56800;52.142;5.364;2023-07-13T01:12:39;8.98;;;2.20;;
69594;SDS011;56800;52.142;5.364;2023-07-13T01:15:33;11.87;;;2.60;;
69594;SDS011;56800;52.142;5.364;2023-07-13T01:17:59;12.85;;;2.40;;
69594;SDS011;56800;52.142;5.364;2023-07-13T01:20:27;8.32;;;2.30;;
69594;SDS011;56800;52.142;5.364;2023-07-13T01:22:54;9.20;;;2.28;;
69594;SDS011;56800;52.142;5.364;2023-07-13T01:25:21;10.93;;;2.40;;
69594;SDS011;56800;52.142;5.364;2023-07-13T01:27:47;12.50;;;2.50;;
69594;SDS011;56800;52.142;5.364;2023-07-13T01:30:14;14.00;;;2.28;;
69594;SDS011;56800;52.142;5.364;2023-07-13T01:32:41;16.55;;;3.10;;
69594;SDS011;56800;52.142;5.364;2023-07-13T01:35:08;11.88;;;2.55;;
69594;SDS011;56800;52.142;5.364;2023-07-13T01:37:35;9.48;;;2.38;;
69594;SDS011;56800;52.142;5.364;2023-07-13T01:40:03;10.07;;;2.47;;
69594;SDS011;56800;52.142;5.364;2023-07-13T01:42:30;9.57;;;3.00;;
69594;SDS011;56800;52.142;5.364;2023-07-13T01:44:57;14.25;;;2.80;;
69594;SDS011;56800;52.142;5.364;2023-07-13T01:47:24;12.75;;;2.70;;
69594;SDS011;56800;52.142;5.364;2023-07-13T01:49:52;14.35;;;2.38;;
69594;SDS011;56800;52.142;5.364;2023-07-13T01:52:19;6.80;;;2.37;;
69594;SDS011;56800;52.142;5.364;2023-07-13T01:54:46;12.38;;;2.53;;
69594;SDS011;56800;52.142;5.364;2023-07-13T01:57:13;9.38;;;2.28;;
69594;SDS011;56800;52.142;5.364;2023-07-13T01:59:39;9.30;;;2.33;;
69594;SDS011;56800;52.142;5.364;2023-07-13T02:02:06;7.55;;;2.40;;
69594;SDS011;56800;52.142;5.364;2023-07-13T02:04:33;8.90;;;2.20;;
69594;SDS011;56800;52.142;5.364;2023-07-13T02:07:00;14.27;;;2.60;;
69594;SDS011;56800;52.142;5.364;2023-07-13T02:09:27;9.10;;;2.65;;
69594;SDS011;56800;52.142;5.364;2023-07-13T02:11:54;9.73;;;2.40;;
69594;SDS011;56800;52.142;5.364;2023-07-13T02:14:21;13.68;;;2.70;;
69594;SDS011;56800;52.142;5.364;2023-07-13T02:16:48;9.53;;;2.40;;
69594;SDS011;56800;52.142;5.364;2023-07-13T02:19:14;11.20;;;2.60;;
69594;SDS011;56800;52.142;5.364;2023-07-13T02:21:41;12.45;;;3.25;;
69594;SDS011;56800;52.142;5.364;2023-07-13T02:24:08;10.20;;;2.63;;
69594;SDS011;56800;52.142;5.364;2023-07-13T02:26:35;9.00;;;2.65;;
69594;SDS011;56800;52.142;5.364;2023-07-13T02:29:02;12.53;;;3.10;;
69594;SDS011;56800;52.142;5.364;2023-07-13T02:31:29;12.65;;;2.70;;
69594;SDS011;56800;52.142;5.364;2023-07-13T02:33:55;15.45;;;2.85;;
69594;SDS011;56800;52.142;5.364;2023-07-13T02:36:22;10.80;;;2.30;;
69594;SDS011;56800;52.142;5.364;2023-07-13T02:38:49;13.55;;;2.85;;
69594;SDS011;56800;52.142;5.364;2023-07-13T02:41:16;9.73;;;2.70;;
69594;SDS011;56800;52.142;5.364;2023-07-13T02:43:43;15.02;;;3.42;;
69594;SDS011;56800;52.142;5.364;2023-07-13T02:46:10;11.63;;;3.38;;
69594;SDS011;56800;52.142;5.364;2023-07-13T02:48:38;13.35;;;2.88;;
69594;SDS011;56800;52.142;5.364;2023-07-13T02:51:05;10.55;;;2.85;;
69594;SDS011;56800;52.142;5.364;2023-07-13T02:53:33;20.30;;;3.27;;
69594;SDS011;56800;52.142;5.364;2023-07-13T02:56:02;14.85;;;3.10;;
69594;SDS011;56800;52.142;5.364;2023-07-13T02:58:29;16.00;;;3.22;;
69594;SDS011;56800;52.142;5.364;2023-07-13T03:00:57;9.90;;;2.67;;
69594;SDS011;56800;52.142;5.364;2023-07-13T03:03:24;17.30;;;3.25;;
69594;SDS011;56800;52.142;5.364;2023-07-13T03:05:57;11.67;;;2.87;;
69594;SDS011;56800;52.142;5.364;2023-07-13T03:08:26;15.35;;;3.47;;
69594;SDS011;56800;52.142;5.364;2023-07-13T03:13:49;14.90;;;3.30;;
69594;SDS011;56800;52.142;5.364;2023-07-13T03:16:16;11.00;;;2.88;;
69594;SDS011;56800;52.142;5.364;2023-07-13T03:18:45;11.70;;;2.60;;
69594;SDS011;56800;52.142;5.364;2023-07-13T03:21:13;13.85;;;3.13;;
69594;SDS011;56800;52.142;5.364;2023-07-13T03:23:40;10.50;;;3.22;;
69594;SDS011;56800;52.142;5.364;2023-07-13T03:26:14;14.05;;;3.60;;
69594;SDS011;56800;52.142;5.364;2023-07-13T03:28:45;13.15;;;3.47;;
69594;SDS011;56800;52.142;5.364;2023-07-13T03:31:14;14.90;;;3.13;;
69594;SDS011;56800;52.142;5.364;2023-07-13T03:33:44;11.85;;;3.28;;
69594;SDS011;56800;52.142;5.364;2023-07-13T03:36:16;14.18;;;3.20;;
69594;SDS011;56800;52.142;5.364;2023-07-13T03:38:49;15.95;;;4.10;;
69594;SDS011;56800;52.142;5.364;2023-07-13T03:41:17;10.63;;;3.35;;
69594;SDS011;56800;52.142;5.364;2023-07-13T03:43:44;14.90;;;3.43;;
69594;SDS011;56800;52.142;5.364;2023-07-13T03:46:11;13.75;;;3.67;;
69594;SDS011;56800;52.142;5.364;2023-07-13T03:48:38;15.75;;;3.63;;
69594;SDS011;56800;52.142;5.364;2023-07-13T03:51:07;20.25;;;3.63;;
69594;SDS011;56800;52.142;5.364;2023-07-13T03:53:37;14.38;;;3.10;;
69594;SDS011;56800;52.142;5.364;2023-07-13T03:56:05;13.97;;;3.13;;
69594;SDS011;56800;52.142;5.364;2023-07-13T03:58:36;12.70;;;3.70;;
69594;SDS011;56800;52.142;5.364;2023-07-13T04:01:05;17.75;;;3.55;;
69594;SDS011;56800;52.142;5.364;2023-07-13T04:03:34;16.10;;;3.83;;
69594;SDS011;56800;52.142;5.364;2023-07-13T04:06:05;16.13;;;3.78;;
69594;SDS011;56800;52.142;5.364;2023-07-13T04:08:35;14.97;;;3.47;;
69594;SDS011;56800;52.142;5.364;2023-07-13T04:11:03;14.07;;;3.30;;
69594;SDS011;56800;52.142;5.364;2023-07-13T04:13:30;16.63;;;4.20;;
69594;SDS011;56800;52.142;5.364;2023-07-13T04:15:57;11.82;;;3.58;;
69594;SDS011;56800;52.142;5.364;2023-07-13T04:18:24;17.25;;;4.40;;
69594;SDS011;56800;52.142;5.364;2023-07-13T04:20:51;16.77;;;4.10;;
69594;SDS011;56800;52.142;5.364;2023-07-13T04:23:17;15.50;;;3.60;;
69594;SDS011;56800;52.142;5.364;2023-07-13T04:25:47;16.70;;;3.72;;
69594;SDS011;56800;52.142;5.364;2023-07-13T04:28:16;14.02;;;3.42;;
69594;SDS011;56800;52.142;5.364;2023-07-13T04:30:44;17.25;;;3.88;;
69594;SDS011;56800;52.142;5.364;2023-07-13T04:33:11;15.43;;;4.20;;
69594;SDS011;56800;52.142;5.364;2023-07-13T04:35:38;16.77;;;4.40;;
69594;SDS011;56800;52.142;5.364;2023-07-13T04:38:04;15.30;;;4.57;;
69594;SDS011;56800;52.142;5.364;2023-07-13T04:40:32;15.85;;;4.10;;
69594;SDS011;56800;52.142;5.364;2023-07-13T04:42:59;13.38;;;4.13;;
69594;SDS011;56800;52.142;5.364;2023-07-13T04:45:26;21.97;;;3.87;;
69594;SDS011;56800;52.142;5.364;2023-07-13T04:47:52;19.25;;;4.10;;
69594;SDS011;56800;52.142;5.364;2023-07-13T04:50:20;18.00;;;4.50;;
69594;SDS011;56800;52.142;5.364;2023-07-13T04:52:50;16.10;;;4.00;;
69594;SDS011;56800;52.142;5.364;2023-07-13T04:55:17;20.58;;;4.78;;
69594;SDS011;56800;52.142;5.364;2023-07-13T04:57:45;17.80;;;4.40;;
69594;SDS011;56800;52.142;5.364;2023-07-13T05:00:13;25.08;;;4.90;;
69594;SDS011;56800;52.142;5.364;2023-07-13T05:02:43;22.33;;;4.82;;
69594;SDS011;56800;52.142;5.364;2023-07-13T05:05:12;17.25;;;4.50;;
69594;SDS011;56800;52.142;5.364;2023-07-13T05:07:39;22.85;;;4.80;;
69594;SDS011;56800;52.142;5.364;2023-07-13T05:10:06;18.03;;;5.10;;
69594;SDS011;56800;52.142;5.364;2023-07-13T05:12:33;22.85;;;4.75;;
69594;SDS011;56800;52.142;5.364;2023-07-13T05:15:01;17.58;;;4.80;;
69594;SDS011;56800;52.142;5.364;2023-07-13T05:17:29;20.48;;;4.90;;
69594;SDS011;56800;52.142;5.364;2023-07-13T05:19:56;27.88;;;5.00;;
69594;SDS011;56800;52.142;5.364;2023-07-13T05:22:22;20.60;;;4.77;;
69594;SDS011;56800;52.142;5.364;2023-07-13T05:24:49;21.92;;;4.60;;
69594;SDS011;56800;52.142;5.364;2023-07-13T05:27:16;22.63;;;6.68;;
69594;SDS011;56800;52.142;5.364;2023-07-13T05:29:43;27.77;;;5.45;;
69594;SDS011;56800;52.142;5.364;2023-07-13T05:32:10;22.42;;;6.57;;
69594;SDS011;56800;52.142;5.364;2023-07-13T05:34:37;24.23;;;5.67;;
69594;SDS011;56800;52.142;5.364;2023-07-13T05:37:04;25.42;;;6.00;;
69594;SDS011;56800;52.142;5.364;2023-07-13T05:39:31;26.80;;;5.97;;
69594;SDS011;56800;52.142;5.364;2023-07-13T05:41:57;26.15;;;6.30;;
69594;SDS011;56800;52.142;5.364;2023-07-13T05:44:24;23.05;;;5.50;;
69594;SDS011;56800;52.142;5.364;2023-07-13T05:46:51;24.70;;;6.27;;
69594;SDS011;56800;52.142;5.364;2023-07-13T05:49:18;24.40;;;6.03;;
69594;SDS011;56800;52.142;5.364;2023-07-13T05:51:44;22.30;;;6.38;;
69594;SDS011;56800;52.142;5.364;2023-07-13T05:54:11;21.65;;;5.85;;
69594;SDS011;56800;52.142;5.364;2023-07-13T05:56:38;27.20;;;6.45;;
69594;SDS011;56800;52.142;5.364;2023-07-13T05:59:06;24.30;;;7.13;;
69594;SDS011;56800;52.142;5.364;2023-07-13T06:01:33;26.15;;;7.40;;
69594;SDS011;56800;52.142;5.364;2023-07-13T06:04:00;26.83;;;8.00;;
69594;SDS011;56800;52.142;5.364;2023-07-13T06:06:27;28.15;;;6.43;;
69594;SDS011;56800;52.142;5.364;2023-07-13T06:08:54;21.40;;;6.68;;
69594;SDS011;56800;52.142;5.364;2023-07-13T06:11:22;22.00;;;7.07;;
69594;SDS011;56800;52.142;5.364;2023-07-13T06:13:50;22.45;;;6.35;;
69594;SDS011;56800;52.142;5.364;2023-07-13T06:16:17;31.50;;;6.93;;
69594;SDS011;56800;52.142;5.364;2023-07-13T06:18:44;22.52;;;7.30;;
69594;SDS011;56800;52.142;5.364;2023-07-13T06:21:16;28.65;;;7.15;;
69594;SDS011;56800;52.142;5.364;2023-07-13T06:23:48;24.63;;;7.13;;
69594;SDS011;56800;52.142;5.364;2023-07-13T06:26:16;27.58;;;7.25;;
69594;SDS011;56800;52.142;5.364;2023-07-13T06:28:45;19.73;;;6.90;;
69594;SDS011;56800;52.142;5.364;2023-07-13T06:31:13;27.90;;;7.43;;
69594;SDS011;56800;52.142;5.364;2023-07-13T06:33:41;24.92;;;7.30;;
69594;SDS011;56800;52.142;5.364;2023-07-13T06:36:08;20.43;;;7.33;;
69594;SDS011;56800;52.142;5.364;2023-07-13T06:38:35;20.63;;;7.22;;
69594;SDS011;56800;52.142;5.364;2023-07-13T06:41:02;28.88;;;7.70;;
69594;SDS011;56800;52.142;5.364;2023-07-13T06:43:30;24.48;;;7.82;;
69594;SDS011;56800;52.142;5.364;2023-07-13T06:45:58;25.02;;;7.35;;
69594;SDS011;56800;52.142;5.364;2023-07-13T06:48:25;26.40;;;7.93;;
69594;SDS011;56800;52.142;5.364;2023-07-13T06:50:52;32.70;;;8.43;;
69594;SDS011;56800;52.142;5.364;2023-07-13T06:53:19;25.52;;;7.47;;
69594;SDS011;56800;52.142;5.364;2023-07-13T06:55:46;27.70;;;7.65;;
69594;SDS011;56800;52.142;5.364;2023-07-13T06:58:15;22.13;;;8.15;;
69594;SDS011;56800;52.142;5.364;2023-07-13T07:00:43;24.73;;;8.13;;
69594;SDS011;56800;52.142;5.364;2023-07-13T07:03:10;22.65;;;7.97;;
69594;SDS011;56800;52.142;5.364;2023-07-13T07:05:37;23.92;;;8.27;;
69594;SDS011;56800;52.142;5.364;2023-07-13T07:08:03;29.40;;;8.68;;
69594;SDS011;56800;52.142;5.364;2023-07-13T07:10:31;29.45;;;8.77;;
69594;SDS011;56800;52.142;5.364;2023-07-13T07:12:58;29.73;;;8.90;;
69594;SDS011;56800;52.142;5.364;2023-07-13T07:15:25;26.85;;;8.85;;
69594;SDS011;56800;52.142;5.364;2023-07-13T07:17:53;23.63;;;8.48;;
69594;SDS011;56800;52.142;5.364;2023-07-13T07:20:19;20.75;;;7.85;;
69594;SDS011;56800;52.142;5.364;2023-07-13T07:22:47;23.55;;;8.82;;
69594;SDS011;56800;52.142;5.364;2023-07-13T07:25:14;27.87;;;9.57;;
69594;SDS011;56800;52.142;5.364;2023-07-13T07:27:41;25.98;;;8.85;;
69594;SDS011;56800;52.142;5.364;2023-07-13T07:30:11;28.45;;;9.75;;
69594;SDS011;56800;52.142;5.364;2023-07-13T07:32:41;24.95;;;8.13;;
69594;SDS011;56800;52.142;5.364;2023-07-13T07:35:22;21.48;;;8.48;;
69594;SDS011;56800;52.142;5.364;2023-07-13T07:37:49;24.47;;;8.43;;
69594;SDS011;56800;52.142;5.364;2023-07-13T07:40:17;20.88;;;8.45;;
69594;SDS011;56800;52.142;5.364;2023-07-13T07:42:47;21.70;;;8.68;;
69594;SDS011;56800;52.142;5.364;2023-07-13T07:45:14;23.73;;;9.10;;
69594;SDS011;56800;52.142;5.364;2023-07-13T07:47:41;23.75;;;9.32;;
69594;SDS011;56800;52.142;5.364;2023-07-13T07:50:08;29.27;;;10.10;;
69594;SDS011;56800;52.142;5.364;2023-07-13T07:52:36;28.88;;;10.60;;
69594;SDS011;56800;52.142;5.364;2023-07-13T07:55:06;29.52;;;10.93;;
69594;SDS011;56800;52.142;5.364;2023-07-13T07:57:37;26.02;;;10.98;;
69594;SDS011;56800;52.142;5.364;2023-07-13T08:00:06;26.70;;;10.40;;
69594;SDS011;56800;52.142;5.364;2023-07-13T08:02:36;26.70;;;10.70;;
69594;SDS011;56800;52.142;5.364;2023-07-13T08:05:07;24.05;;;9.85;;
69594;SDS011;56800;52.142;5.364;2023-07-13T08:07:38;27.08;;;10.63;;
69594;SDS011;56800;52.142;5.364;2023-07-13T08:10:06;23.38;;;10.18;;
69594;SDS011;56800;52.142;5.364;2023-07-13T08:12:34;23.45;;;8.95;;
69594;SDS011;56800;52.142;5.364;2023-07-13T08:15:05;24.10;;;8.23;;
69594;SDS011;56800;52.142;5.364;2023-07-13T08:17:35;17.63;;;7.07;;
69594;SDS011;56800;52.142;5.364;2023-07-13T08:20:03;19.55;;;7.30;;
69594;SDS011;56800;52.142;5.364;2023-07-13T08:22:30;20.05;;;6.40;;
69594;SDS011;56800;52.142;5.364;2023-07-13T08:24:58;22.70;;;6.70;;
69594;SDS011;56800;52.142;5.364;2023-07-13T08:27:26;19.57;;;6.70;;
69594;SDS011;56800;52.142;5.364;2023-07-13T08:29:54;17.67;;;6.60;;
69594;SDS011;56800;52.142;5.364;2023-07-13T08:32:22;17.27;;;6.40;;
69594;SDS011;56800;52.142;5.364;2023-07-13T08:34:50;18.67;;;6.35;;
69594;SDS011;56800;52.142;5.364;2023-07-13T08:37:17;20.15;;;5.68;;
69594;SDS011;56800;52.142;5.364;2023-07-13T08:39:44;15.13;;;5.93;;
69594;SDS011;56800;52.142;5.364;2023-07-13T08:45:01;14.13;;;4.88;;
69594;SDS011;56800;52.142;5.364;2023-07-13T08:47:53;14.90;;;4.50;;
69594;SDS011;56800;52.142;5.364;2023-07-13T08:50:46;9.57;;;2.88;;
69594;SDS011;56800;52.142;5.364;2023-07-13T08:53:34;7.80;;;2.80;;
69594;SDS011;56800;52.142;5.364;2023-07-13T08:56:07;7.40;;;2.72;;
69594;SDS011;56800;52.142;5.364;2023-07-13T08:58:42;7.82;;;2.95;;
69594;SDS011;56800;52.142;5.364;2023-07-13T09:01:15;7.82;;;3.10;;
69594;SDS011;56800;52.142;5.364;2023-07-13T09:03:54;7.13;;;2.53;;
69594;SDS011;56800;52.142;5.364;2023-07-13T09:06:34;6.53;;;2.33;;
69594;SDS011;56800;52.142;5.364;2023-07-13T09:14:48;9.23;;;3.00;;
69594;SDS011;56800;52.142;5.364;2023-07-13T09:17:27;7.25;;;2.90;;
69594;SDS011;56800;52.142;5.364;2023-07-13T09:20:08;6.73;;;2.40;;
69594;SDS011;56800;52.142;5.364;2023-07-13T09:22:44;9.63;;;3.00;;
69594;SDS011;56800;52.142;5.364;2023-07-13T09:28:05;8.02;;;3.38;;
69594;SDS011;56800;52.142;5.364;2023-07-13T09:33:20;11.60;;;3.43;;
69594;SDS011;56800;52.142;5.364;2023-07-13T09:35:48;10.02;;;3.20;;
69594;SDS011;56800;52.142;5.364;2023-07-13T09:38:18;9.30;;;3.40;;
69594;SDS011;56800;52.142;5.364;2023-07-13T09:43:35;8.88;;;3.20;;
69594;SDS011;56800;52.142;5.364;2023-07-13T09:46:02;8.60;;;3.33;;
69594;SDS011;56800;52.142;5.364;2023-07-13T09:48:34;13.20;;;3.92;;
69594;SDS011;56800;52.142;5.364;2023-07-13T09:51:15;17.20;;;4.70;;
69594;SDS011;56800;52.142;5.364;2023-07-13T09:53:42;15.18;;;3.78;;
69594;SDS011;56800;52.142;5.364;2023-07-13T09:59:18;12.77;;;3.00;;
69594;SDS011;56800;52.142;5.364;2023-07-13T10:01:46;5.80;;;2.97;;
69594;SDS011;56800;52.142;5.364;2023-07-13T10:04:16;10.02;;;2.95;;
69594;SDS011;56800;52.142;5.364;2023-07-13T10:06:45;6.47;;;2.63;;
69594;SDS011;56800;52.142;5.364;2023-07-13T10:09:17;7.97;;;2.67;;
69594;SDS011;56800;52.142;5.364;2023-07-13T10:11:45;9.20;;;2.80;;
69594;SDS011;56800;52.142;5.364;2023-07-13T10:14:20;6.93;;;2.90;;
69594;SDS011;56800;52.142;5.364;2023-07-13T10:16:54;9.32;;;3.60;;
69594;SDS011;56800;52.142;5.364;2023-07-13T10:19:29;13.75;;;3.35;;
69594;SDS011;56800;52.142;5.364;2023-07-13T10:22:00;9.05;;;3.47;;
69594;SDS011;56800;52.142;5.364;2023-07-13T10:24:32;10.07;;;3.50;;
69594;SDS011;56800;52.142;5.364;2023-07-13T10:27:13;9.82;;;3.60;;
69594;SDS011;56800;52.142;5.364;2023-07-13T10:29:48;10.57;;;3.80;;
69594;SDS011;56800;52.142;5.364;2023-07-13T10:32:19;14.40;;;3.78;;
69594;SDS011;56800;52.142;5.364;2023-07-13T10:34:50;10.77;;;3.75;;
69594;SDS011;56800;52.142;5.364;2023-07-13T10:37:19;11.70;;;3.90;;
69594;SDS011;56800;52.142;5.364;2023-07-13T10:40:03;10.55;;;4.18;;
69594;SDS011;56800;52.142;5.364;2023-07-13T10:42:38;10.23;;;3.72;;
69594;SDS011;56800;52.142;5.364;2023-07-13T10:45:41;10.02;;;4.10;;
69594;SDS011;56800;52.142;5.364;2023-07-13T10:48:02;10.32;;;4.05;;
69594;SDS011;56800;52.142;5.364;2023-07-13T10:50:31;8.47;;;3.70;;
69594;SDS011;56800;52.142;5.364;2023-07-13T10:53:01;9.80;;;3.08;;
69594;SDS011;56800;52.142;5.364;2023-07-13T10:55:33;8.00;;;3.58;;
69594;SDS011;56800;52.142;5.364;2023-07-13T10:58:20;10.15;;;3.60;;
69594;SDS011;56800;52.142;5.364;2023-07-13T11:00:50;9.75;;;3.50;;
69594;SDS011;56800;52.142;5.364;2023-07-13T11:03:27;8.67;;;3.43;;
69594;SDS011;56800;52.142;5.364;2023-07-13T11:08:50;6.95;;;2.88;;
69594;SDS011;56800;52.142;5.364;2023-07-13T11:14:03;7.75;;;2.97;;
69594;SDS011;56800;52.142;5.364;2023-07-13T11:16:53;12.17;;;3.30;;
69594;SDS011;56800;52.142;5.364;2023-07-13T11:19:24;8.20;;;3.15;;
69594;SDS011;56800;52.142;5.364;2023-07-13T11:24:57;8.88;;;3.15;;
69594;SDS011;56800;52.142;5.364;2023-07-13T11:27:34;10.32;;;3.83;;
69594;SDS011;56800;52.142;5.364;2023-07-13T11:33:45;8.57;;;3.40;;
69594;SDS011;56800;52.142;5.364;2023-07-13T11:38:14;8.77;;;3.28;;
69594;SDS011;56800;52.142;5.364;2023-07-13T11:40:47;12.23;;;3.45;;
69594;SDS011;56800;52.142;5.364;2023-07-13T11:43:22;7.80;;;2.87;;
69594;SDS011;56800;52.142;5.364;2023-07-13T11:45:52;8.68;;;3.00;;
69594;SDS011;56800;52.142;5.364;2023-07-13T11:50:51;11.48;;;3.28;;
69594;SDS011;56800;52.142;5.364;2023-07-13T11:53:35;8.77;;;3.45;;
69594;SDS011;56800;52.142;5.364;2023-07-13T11:56:06;8.03;;;3.13;;
69594;SDS011;56800;52.142;5.364;2023-07-13T11:58:34;9.48;;;3.42;;
69594;SDS011;56800;52.142;5.364;2023-07-13T12:01:01;12.23;;;4.10;;
69594;SDS011;56800;52.142;5.364;2023-07-13T12:03:31;12.52;;;3.65;;
69594;SDS011;56800;52.142;5.364;2023-07-13T12:06:02;10.10;;;3.92;;
69594;SDS011;56800;52.142;5.364;2023-07-13T12:08:38;8.87;;;3.43;;
69594;SDS011;56800;52.142;5.364;2023-07-13T12:11:11;10.30;;;3.70;;
69594;SDS011;56800;52.142;5.364;2023-07-13T12:13:43;8.15;;;3.55;;
69594;SDS011;56800;52.142;5.364;2023-07-13T12:16:11;10.85;;;4.22;;
69594;SDS011;56800;52.142;5.364;2023-07-13T12:18:48;9.07;;;4.18;;
69594;SDS011;56800;52.142;5.364;2023-07-13T12:21:18;8.33;;;4.07;;
69594;SDS011;56800;52.142;5.364;2023-07-13T12:23:48;10.63;;;4.10;;
69594;SDS011;56800;52.142;5.364;2023-07-13T12:26:16;10.23;;;3.83;;
69594;SDS011;56800;52.142;5.364;2023-07-13T12:28:46;8.70;;;4.07;;
69594;SDS011;56800;52.142;5.364;2023-07-13T12:31:22;11.50;;;4.00;;
69594;SDS011;56800;52.142;5.364;2023-07-13T12:33:57;10.60;;;3.77;;
69594;SDS011;56800;52.142;5.364;2023-07-13T12:36:29;8.27;;;3.50;;
69594;SDS011;56800;52.142;5.364;2023-07-13T12:38:59;11.35;;;3.80;;
69594;SDS011;56800;52.142;5.364;2023-07-13T12:41:31;9.38;;;3.42;;
69594;SDS011;56800;52.142;5.364;2023-07-13T12:43:59;10.45;;;3.28;;
69594;SDS011;56800;52.142;5.364;2023-07-13T12:46:26;7.23;;;3.30;;
69594;SDS011;56800;52.142;5.364;2023-07-13T12:48:56;7.85;;;3.20;;
69594;SDS011;56800;52.142;5.364;2023-07-13T12:51:43;9.02;;;3.17;;
69594;SDS011;56800;52.142;5.364;2023-07-13T12:54:15;11.55;;;3.42;;
69594;SDS011;56800;52.142;5.364;2023-07-13T12:56:43;7.90;;;3.20;;
69594;SDS011;56800;52.142;5.364;2023-07-13T12:59:15;10.07;;;3.33;;
69594;SDS011;56800;52.142;5.364;2023-07-13T13:01:45;13.20;;;3.45;;
69594;SDS011;56800;52.142;5.364;2023-07-13T13:04:13;7.07;;;3.13;;
69594;SDS011;56800;52.142;5.364;2023-07-13T13:06:41;9.48;;;3.17;;
69594;SDS011;56800;52.142;5.364;2023-07-13T13:09:13;7.93;;;3.13;;
69594;SDS011;56800;52.142;5.364;2023-07-13T13:11:41;9.70;;;3.07;;
69594;SDS011;56800;52.142;5.364;2023-07-13T13:14:08;11.82;;;3.25;;
69594;SDS011;56800;52.142;5.364;2023-07-13T13:16:43;10.20;;;3.67;;
69594;SDS011;56800;52.142;5.364;2023-07-13T13:19:14;8.57;;;3.13;;
69594;SDS011;56800;52.142;5.364;2023-07-13T13:21:47;8.65;;;3.28;;
69594;SDS011;56800;52.142;5.364;2023-07-13T13:24:18;8.40;;;2.77;;
69594;SDS011;56800;52.142;5.364;2023-07-13T13:26:50;6.88;;;3.45;;
69594;SDS011;56800;52.142;5.364;2023-07-13T13:29:19;9.30;;;3.72;;
69594;SDS011;56800;52.142;5.364;2023-07-13T13:31:50;7.35;;;3.67;;
69594;SDS011;56800;52.142;5.364;2023-07-13T13:34:18;10.18;;;3.42;;
69594;SDS011;56800;52.142;5.364;2023-07-13T13:36:46;10.70;;;3.03;;
69594;SDS011;56800;52.142;5.364;2023-07-13T13:39:22;8.98;;;3.00;;
69594;SDS011;56800;52.142;5.364;2023-07-13T13:41:51;7.18;;;2.80;;
69594;SDS011;56800;52.142;5.364;2023-07-13T13:44:19;7.03;;;3.08;;
69594;SDS011;56800;52.142;5.364;2023-07-13T13:46:47;6.82;;;2.85;;
69594;SDS011;56800;52.142;5.364;2023-07-13T13:49:24;8.87;;;3.10;;
69594;SDS011;56800;52.142;5.364;2023-07-13T13:51:52;9.10;;;2.95;;
69594;SDS011;56800;52.142;5.364;2023-07-13T13:54:20;7.93;;;3.38;;
69594;SDS011;56800;52.142;5.364;2023-07-13T13:56:49;9.38;;;3.33;;
69594;SDS011;56800;52.142;5.364;2023-07-13T13:59:17;7.40;;;3.45;;
69594;SDS011;56800;52.142;5.364;2023-07-13T14:01:45;9.23;;;3.00;;
69594;SDS011;56800;52.142;5.364;2023-07-13T14:04:18;9.05;;;3.40;;
69594;SDS011;56800;52.142;5.364;2023-07-13T14:06:46;7.80;;;3.65;;
69594;SDS011;56800;52.142;5.364;2023-07-13T14:09:15;6.50;;;2.95;;
69594;SDS011;56800;52.142;5.364;2023-07-13T14:11:44;7.55;;;3.42;;
69594;SDS011;56800;52.142;5.364;2023-07-13T14:14:17;8.93;;;3.03;;
69594;SDS011;56800;52.142;5.364;2023-07-13T14:16:47;8.55;;;3.00;;
69594;SDS011;56800;52.142;5.364;2023-07-13T14:19:20;10.00;;;3.42;;
69594;SDS011;56800;52.142;5.364;2023-07-13T14:21:47;7.60;;;3.13;;
69594;SDS011;56800;52.142;5.364;2023-07-13T14:24:15;8.18;;;3.55;;
69594;SDS011;56800;52.142;5.364;2023-07-13T14:26:43;7.27;;;2.67;;
69594;SDS011;56800;52.142;5.364;2023-07-13T14:29:14;7.70;;;3.20;;
69594;SDS011;56800;52.142;5.364;2023-07-13T14:31:47;8.15;;;3.40;;
69594;SDS011;56800;52.142;5.364;2023-07-13T14:34:14;7.55;;;3.17;;
69594;SDS011;56800;52.142;5.364;2023-07-13T14:36:45;7.68;;;3.05;;
69594;SDS011;56800;52.142;5.364;2023-07-13T14:39:19;7.70;;;2.77;;
69594;SDS011;56800;52.142;5.364;2023-07-13T14:41:52;5.78;;;3.45;;
69594;SDS011;56800;52.142;5.364;2023-07-13T14:44:21;8.50;;;2.88;;
69594;SDS011;56800;52.142;5.364;2023-07-13T14:46:55;6.22;;;2.90;;
69594;SDS011;56800;52.142;5.364;2023-07-13T14:49:32;8.57;;;3.22;;
69594;SDS011;56800;52.142;5.364;2023-07-13T14:52:23;11.97;;;3.27;;
69594;SDS011;56800;52.142;5.364;2023-07-13T14:54:53;6.07;;;2.55;;
69594;SDS011;56800;52.142;5.364;2023-07-13T14:57:20;8.00;;;3.20;;
69594;SDS011;56800;52.142;5.364;2023-07-13T14:59:47;7.18;;;3.08;;
69594;SDS011;56800;52.142;5.364;2023-07-13T15:02:25;5.35;;;2.50;;
69594;SDS011;56800;52.142;5.364;2023-07-13T15:04:56;6.03;;;2.87;;
69594;SDS011;56800;52.142;5.364;2023-07-13T15:07:23;8.38;;;2.75;;
69594;SDS011;56800;52.142;5.364;2023-07-13T15:09:50;7.88;;;3.13;;
69594;SDS011;56800;52.142;5.364;2023-07-13T15:12:18;7.57;;;2.95;;
69594;SDS011;56800;52.142;5.364;2023-07-13T15:14:46;6.90;;;2.85;;
69594;SDS011;56800;52.142;5.364;2023-07-13T15:17:23;7.13;;;2.97;;
69594;SDS011;56800;52.142;5.364;2023-07-13T15:19:56;6.78;;;2.50;;
69594;SDS011;56800;52.142;5.364;2023-07-13T15:22:23;7.45;;;3.13;;
69594;SDS011;56800;52.142;5.364;2023-07-13T15:24:50;8.18;;;3.30;;
69594;SDS011;56800;52.142;5.364;2023-07-13T15:27:17;8.95;;;2.80;;
69594;SDS011;56800;52.142;5.364;2023-07-13T15:29:44;8.77;;;2.90;;
69594;SDS011;56800;52.142;5.364;2023-07-13T15:32:15;7.32;;;2.92;;